メインページ
METAR-TAF:

METAR-TAF

空港 :

ヒロ国際空港

ヒロ, ハワイ州, アメリカ合衆国

緯度: 19-43-20N, 経度: 155-03-21W, 海抜: 11m

現時点の気象観測

当レポートは23分前の01:53(UTC)に作成
北東の風 10kt
気温 24°C
湿度 61%
気圧 1018 hPa
視程: 16.1km
高度3400ftの雲は散在している

METAR: PHTO 260153Z 04010KT 10SM SCT034 24/16 A3006 RMK AO2 SLP177 T02440156

時間: 16:16 (02:16 UTC)

予報

当レポートは2時間31分前の23:45(UTC)に作成
予報は26日の 00時(UTC)から 26日の 24時(UTC)まで有効
北東の風 10kt
視程: 10km
高度3000ftの雲はほとんどない
高度4000ftの雲は散在している
高度5000ftの千切れ雲あり
26日の 0600時(UTC)から
西/北西の風 6kt
視程: 10km
高度3500ftの雲はほとんどない
高度6000ftの雲は散在している
26日の 2100時(UTC)から
北/北東の風 11kt
視程: 10km
高度3500ftの雲はほとんどない
高度5000ftの雲は散在している

TAF: PHTO 252345Z 2600/2624 04010KT P6SM FEW030 SCT040 BKN050 FM260600 30006KT P6SM FEW035 SCT060 FM262100 02011KT P6SM FEW035 SCT050

4,000以上の空港の気象観測と天気予報(METAR報とTAF報)

利用可能な観測所は地図上に黄色い丸と赤い丸で示す。

丸の上にカーソルを重ねると観測所名を参照できる。

次にクリックすると気象観測と天気予報を参照できる。

マップの切り替え:黒色「×」印の緑ボタンをクリックして拡大、「-」印の緑ボタンをクリックして縮小、緑色の三角印をクリックして隣りの地図に切り替え


METAR-TAF: